createdAt,value
2018-06-20T18:44:48.573Z,62.69
2018-06-20T18:47:01.399Z,64.82
2018-06-20T18:51:05.487Z,63.62
2018-06-20T18:52:05.404Z,63.24
2018-06-20T18:53:05.380Z,63.34
2018-06-20T18:57:06.774Z,64.40
2018-06-20T18:57:46.433Z,64.01
2018-06-20T18:58:46.433Z,63.92
2018-06-20T18:59:45.651Z,63.24
2018-06-20T19:00:45.629Z,64.11
2018-06-20T19:01:45.590Z,64.30
2018-06-20T19:02:45.559Z,64.30
2018-06-20T19:03:45.533Z,64.20
2018-06-20T19:04:45.506Z,63.24
2018-06-20T19:05:45.479Z,63.04
2018-06-20T19:06:45.459Z,64.59
2018-06-20T19:07:45.420Z,64.50
2018-06-20T19:08:45.390Z,64.89
2018-06-20T19:09:45.360Z,64.98
2018-06-20T19:10:45.332Z,64.66
2018-06-20T19:11:45.303Z,64.47
2018-06-20T19:12:45.273Z,64.75
2018-06-20T19:13:45.245Z,65.37
2018-06-20T19:14:45.216Z,65.34
2018-06-20T19:15:45.197Z,64.85
2018-06-20T19:16:45.161Z,64.66
2018-06-20T19:17:45.132Z,64.95
2018-06-20T19:18:45.097Z,65.05
2018-06-20T19:19:45.074Z,64.85
2018-06-20T19:20:45.055Z,64.95
2018-06-20T19:21:45.018Z,64.47
2018-06-20T19:22:44.988Z,64.24
2018-06-20T19:23:44.958Z,64.72
2018-06-20T19:24:44.928Z,65.92
2018-06-20T19:25:44.902Z,65.98
2018-06-20T19:26:44.873Z,65.40
2018-06-20T19:27:44.844Z,65.98
2018-06-20T19:28:44.813Z,66.08
2018-06-20T19:29:44.788Z,66.66
2018-06-20T19:30:44.753Z,65.98
2018-06-20T19:31:44.721Z,66.27
2018-06-20T19:32:44.694Z,66.75
2018-06-20T19:33:44.669Z,66.17
2018-06-20T19:34:44.632Z,66.24
2018-06-20T19:35:44.614Z,65.85
2018-06-20T19:36:44.581Z,65.17
2018-06-20T19:37:44.550Z,65.66
2018-06-20T19:38:44.550Z,67.01
2018-06-20T19:39:44.493Z,67.79
2018-06-20T19:40:44.461Z,67.40
2018-06-20T19:41:44.432Z,67.40
2018-06-20T19:42:44.405Z,67.11
2018-06-20T19:43:44.381Z,67.01
2018-06-20T19:44:44.420Z,67.59
2018-06-20T19:45:44.315Z,67.01
2018-06-20T19:46:44.302Z,67.79
2018-06-20T19:47:44.275Z,67.88
2018-06-20T19:48:44.243Z,67.69
2018-06-20T19:49:44.198Z,67.17
2018-06-20T19:50:44.168Z,66.63
2018-06-20T19:51:44.206Z,66.33
2018-06-20T19:52:44.109Z,66.78
2018-06-20T19:53:44.080Z,66.59
2018-06-20T19:54:44.072Z,66.69
2018-06-20T19:55:44.022Z,65.82
2018-06-20T19:56:43.993Z,66.01
2018-06-20T19:57:43.961Z,66.50
2018-06-20T19:58:43.933Z,66.50
2018-06-20T19:59:43.905Z,67.94
2018-06-20T20:00:43.883Z,66.78
2018-06-20T20:01:43.845Z,67.85
2018-06-20T20:02:43.853Z,66.88
2018-06-20T20:03:43.787Z,67.08
2018-06-20T20:04:43.755Z,68.04
2018-06-20T20:05:43.727Z,66.78
2018-06-20T20:06:43.724Z,67.27
2018-06-20T20:07:43.668Z,67.75
2018-06-20T20:08:43.639Z,68.04
2018-06-20T20:09:43.609Z,69.17
2018-06-20T20:10:43.579Z,69.26
2018-06-20T20:11:43.550Z,68.59
2018-06-20T20:12:43.519Z,70.14
2018-06-20T20:13:43.489Z,70.14
2018-06-20T20:14:43.461Z,69.94
2018-06-20T20:15:43.431Z,71.06
2018-06-20T20:16:43.393Z,70.78
2018-06-20T20:17:43.363Z,71.16
2018-06-20T20:18:43.342Z,69.32
2018-06-20T20:19:43.312Z,69.32
2018-06-20T20:20:43.282Z,69.32
2018-06-20T20:21:43.254Z,69.62
2018-06-20T20:22:43.216Z,70.20
2018-06-20T20:23:43.191Z,70.68
2018-06-20T20:24:43.167Z,71.45
2018-06-20T20:25:43.131Z,71.26
2018-06-20T20:26:43.102Z,73.00
2018-06-20T20:27:43.072Z,73.15
2018-06-20T20:28:43.042Z,71.84
2018-06-20T20:29:43.010Z,71.42
2018-06-20T20:30:42.985Z,70.68
2018-06-20T20:31:42.955Z,70.10
2018-06-20T20:32:42.935Z,69.62
2018-06-20T20:33:42.891Z,70.00
2018-06-20T20:34:42.890Z,71.26
2018-06-20T20:35:42.829Z,70.39
2018-06-20T20:36:42.807Z,72.13
2018-06-20T20:37:42.773Z,72.67
2018-06-20T20:38:42.745Z,72.13
2018-06-20T20:39:42.709Z,72.96
2018-06-20T20:40:42.685Z,73.44
2018-06-20T20:41:42.651Z,72.38
2018-06-20T20:42:42.632Z,72.00
2018-06-20T20:43:42.620Z,72.38
2018-06-20T20:44:42.569Z,73.54
2018-06-20T20:45:42.534Z,74.41
2018-06-20T20:46:42.504Z,74.12
2018-06-20T20:47:42.472Z,75.57
2018-06-20T20:48:42.442Z,76.15
2018-06-20T20:49:42.420Z,76.24
2018-06-20T20:50:42.382Z,76.59
2018-06-20T20:51:42.363Z,76.68
2018-06-20T20:52:42.329Z,76.20
2018-06-20T20:53:42.292Z,76.30
2018-06-20T20:54:42.264Z,76.68
2018-06-20T20:55:42.227Z,76.10
2018-06-20T20:56:42.311Z,76.20
2018-06-20T20:57:42.172Z,75.92
2018-06-20T20:58:42.133Z,76.10
2018-06-20T20:59:42.158Z,76.68
2018-06-20T21:00:42.076Z,76.30
2018-06-20T21:01:42.043Z,75.72
2018-06-20T21:02:42.023Z,76.10
2018-06-20T21:03:41.994Z,76.01
2018-06-20T21:04:41.964Z,76.10
2018-06-20T21:05:41.963Z,76.20
2018-06-20T21:06:41.895Z,75.92
2018-06-20T21:07:41.873Z,75.34
2018-06-20T21:08:41.841Z,76.20
2018-06-20T21:09:41.807Z,76.01
2018-06-20T21:10:41.780Z,76.50
2018-06-20T21:11:41.798Z,76.78
2018-06-20T21:12:41.719Z,76.10
2018-06-20T21:13:41.688Z,76.59
2018-06-20T21:14:41.660Z,77.36
2018-06-20T21:15:41.629Z,76.78
2018-06-20T21:16:41.600Z,76.88
2018-06-20T21:17:41.567Z,77.94
2018-06-20T21:18:41.537Z,77.36
2018-06-20T21:19:41.507Z,76.88
2018-06-20T21:20:41.485Z,76.40
2018-06-20T21:21:41.461Z,75.47
2018-06-20T21:22:41.416Z,75.37
2018-06-20T21:23:41.398Z,75.43
2018-06-20T21:24:41.354Z,76.59
2018-06-20T21:25:41.326Z,76.88
2018-06-20T21:26:41.295Z,77.75
2018-06-20T21:27:41.325Z,78.03
2018-06-20T21:28:41.242Z,77.94
2018-06-20T21:29:41.203Z,77.17
2018-06-20T21:30:41.166Z,76.78
2018-06-20T21:31:41.138Z,76.98
2018-06-20T21:32:41.116Z,77.65
2018-06-20T21:33:41.231Z,78.42
2018-06-20T21:34:41.053Z,78.58
2018-06-20T21:35:41.024Z,79.25
2018-06-20T21:36:40.990Z,78.52
2018-06-20T21:37:40.969Z,78.77
2018-06-20T21:38:40.930Z,79.06
2018-06-20T21:39:40.904Z,79.35
2018-06-20T21:40:40.871Z,78.71
2018-06-20T21:41:40.839Z,78.33
2018-06-20T21:42:40.811Z,78.96
2018-06-20T21:43:40.783Z,79.35
2018-06-20T21:44:40.748Z,80.22
2018-06-20T21:45:40.934Z,79.44
2018-06-20T21:46:40.686Z,79.93
2018-06-20T21:47:40.663Z,80.12
2018-06-20T21:48:40.676Z,80.12
2018-06-20T21:49:40.599Z,80.89
2018-06-20T21:50:40.560Z,80.94
2018-06-20T21:51:40.546Z,81.43
2018-06-20T21:52:40.506Z,81.43
2018-06-20T21:53:40.507Z,81.24
2018-06-20T21:54:40.443Z,81.52
2018-06-20T21:55:40.415Z,81.24
2018-06-20T21:56:40.384Z,81.14
2018-06-20T21:57:40.357Z,81.81
2018-06-20T21:58:40.330Z,81.33
2018-06-20T21:59:40.293Z,82.20
2018-06-20T22:00:40.260Z,82.01
2018-06-20T22:01:40.249Z,82.10
2018-06-20T22:02:40.209Z,82.64
2018-06-20T22:03:40.179Z,83.51
2018-06-20T22:04:40.418Z,83.41
2018-06-20T22:05:40.109Z,83.89
2018-06-20T22:06:40.100Z,83.51
2018-06-20T22:07:40.049Z,83.51
2018-06-20T22:08:40.033Z,83.12
2018-06-20T22:09:39.992Z,83.03
2018-06-20T22:10:39.955Z,83.31
2018-06-20T22:11:39.925Z,84.28
2018-06-20T22:12:39.893Z,84.76
2018-06-20T22:13:39.863Z,84.86
2018-06-20T22:14:39.833Z,84.66
2018-06-20T22:15:39.796Z,84.66
2018-06-20T22:16:39.784Z,84.86
2018-06-20T22:17:42.580Z,84.66
2018-06-20T22:18:39.749Z,84.86
2018-06-20T22:19:39.687Z,84.76
2018-06-20T22:20:39.682Z,84.66
2018-06-20T22:21:39.621Z,85.43
2018-06-20T22:22:39.587Z,85.87
2018-06-20T22:23:39.559Z,85.39
2018-06-20T22:24:39.524Z,85.10
2018-06-20T22:25:39.541Z,85.68
2018-06-20T22:26:39.468Z,85.87
2018-06-20T22:27:39.439Z,86.26
2018-06-20T22:28:39.402Z,86.55
2018-06-20T22:29:39.382Z,86.74
2018-06-20T22:30:39.341Z,86.35
2018-06-20T22:31:39.310Z,86.65
2018-06-20T22:32:39.292Z,86.60
2018-06-20T22:33:39.269Z,86.74
2018-06-20T22:34:39.219Z,86.51
2018-06-20T22:35:39.192Z,86.51
2018-06-20T22:36:39.173Z,86.12
2018-06-20T22:37:40.008Z,86.31
2018-06-20T22:38:39.103Z,86.31
2018-06-20T22:39:40.506Z,86.69
2018-06-20T22:40:39.055Z,86.51
2018-06-20T22:41:39.003Z,86.31
2018-06-20T22:42:38.970Z,86.51
2018-06-20T22:43:38.944Z,85.93
2018-06-20T22:44:38.910Z,85.83
2018-06-20T22:45:38.875Z,85.64
2018-06-20T22:46:38.849Z,85.35
2018-06-20T22:47:38.819Z,85.25
2018-06-20T22:48:38.805Z,85.93
2018-06-20T22:49:38.780Z,85.35
2018-06-20T22:50:38.723Z,86.02
2018-06-20T22:51:38.695Z,85.83
2018-06-20T22:52:38.662Z,86.60
2018-06-20T22:53:38.640Z,86.31
2018-06-20T22:54:38.611Z,86.22
2018-06-20T22:55:38.595Z,86.12
2018-06-20T22:56:38.539Z,86.79
2018-06-20T22:57:38.537Z,86.89
2018-06-20T22:58:38.476Z,86.69
2018-06-20T22:59:38.461Z,87.18
2018-06-20T23:00:38.415Z,87.27
2018-06-20T23:01:38.384Z,87.18
2018-06-20T23:02:38.364Z,87.52
2018-06-20T23:03:38.324Z,87.33
2018-06-20T23:04:38.304Z,87.33
2018-06-20T23:05:38.260Z,87.62
2018-06-20T23:06:38.228Z,87.23
2018-06-20T23:07:38.197Z,87.23
2018-06-20T23:08:38.180Z,87.62
2018-06-20T23:09:38.181Z,87.71
2018-06-20T23:10:38.125Z,87.71
2018-06-20T23:11:38.088Z,88.39
2018-06-20T23:12:38.042Z,88.39
2018-06-20T23:13:38.012Z,88.96
2018-06-20T23:14:37.985Z,88.77
2018-06-20T23:15:37.947Z,88.87
2018-06-20T23:16:37.919Z,89.44
2018-06-20T23:17:37.889Z,89.15
2018-06-20T23:18:37.858Z,89.73
2018-06-20T23:19:37.827Z,89.54
2018-06-20T23:20:37.795Z,89.54
2018-06-20T23:21:37.761Z,89.73
2018-06-20T23:22:37.735Z,89.69
2018-06-20T23:23:37.724Z,89.92
2018-06-20T23:24:37.672Z,89.50
2018-06-20T23:25:37.635Z,90.17
2018-06-20T23:26:37.615Z,89.69
2018-06-20T23:27:37.576Z,90.26
2018-06-20T23:28:37.552Z,90.07
2018-06-20T23:29:37.511Z,90.07
2018-06-20T23:30:37.485Z,89.69
2018-06-20T23:31:37.458Z,90.07
2018-06-20T23:32:37.423Z,90.55
2018-06-20T23:33:37.388Z,90.45
2018-06-20T23:34:37.388Z,91.13
2018-06-20T23:35:37.327Z,90.84
2018-06-20T23:36:37.295Z,90.94
2018-06-20T23:37:37.263Z,91.32
2018-06-20T23:38:37.231Z,91.32
2018-06-20T23:39:37.213Z,91.13
2018-06-20T23:40:37.178Z,91.42
2018-06-20T23:41:37.141Z,91.13
2018-06-20T23:42:37.129Z,91.71
2018-06-20T23:43:37.079Z,91.71
2018-06-20T23:44:37.048Z,92.09
2018-06-20T23:45:37.015Z,92.29
2018-06-20T23:46:36.986Z,92.09
2018-06-20T23:47:36.955Z,92.29
2018-06-20T23:48:36.936Z,93.05
2018-06-20T23:49:36.905Z,92.47
2018-06-20T23:50:36.863Z,92.86
2018-06-20T23:51:36.827Z,92.24
2018-06-20T23:52:36.797Z,93.05
2018-06-20T23:53:36.782Z,92.47
2018-06-20T23:54:36.737Z,91.99
2018-06-20T23:55:36.712Z,92.57
2018-06-20T23:56:36.668Z,92.29
2018-06-20T23:57:36.638Z,92.38
2018-06-20T23:58:36.620Z,92.14
2018-06-20T23:59:36.571Z,92.52
